Time;durP1;ratioP1;P1;durP2;ratioP2;P2;SDS_P1;SDS_P2;PMS_P1;PMS_P2;Temp;Humidity;BMP_temperature;BMP_pressure;BME280_temperature;BME280_humidity;BME280_pressure;Samples;Min_cycle;Max_cycle;Signal;HPM_P1;HPM_P2
2024/02/18 00:00:07;;;;;;;3.97;2.17;;;12.10;99.90;;;;;;5056233;28;20486;-55
2024/02/18 00:02:34;;;;;;;5.17;2.37;;;12.10;99.90;;;;;;5055080;28;20454;-56
2024/02/18 00:05:01;;;;;;;6.00;3.30;;;12.10;99.90;;;;;;5055293;28;20449;-56
2024/02/18 00:07:28;;;;;;;5.83;2.40;;;12.10;99.90;;;;;;5055223;28;20441;-56
2024/02/18 00:09:56;;;;;;;6.20;2.77;;;12.10;99.90;;;;;;5055308;28;20458;-55
2024/02/18 00:12:24;;;;;;;3.17;2.70;;;12.10;99.90;;;;;;5055316;28;20448;-56
2024/02/18 00:14:51;;;;;;;8.20;2.50;;;12.10;99.90;;;;;;5055129;28;20449;-56
2024/02/18 00:17:18;;;;;;;5.50;2.00;;;12.10;99.90;;;;;;5054693;28;20442;-56
2024/02/18 00:19:45;;;;;;;4.57;2.70;;;12.10;99.90;;;;;;5054982;28;20568;-56
2024/02/18 00:22:12;;;;;;;10.40;2.40;;;12.10;99.90;;;;;;5055315;28;20437;-56
2024/02/18 00:24:38;;;;;;;7.43;2.90;;;12.10;99.90;;;;;;5054762;28;20457;-55
2024/02/18 00:27:09;;;;;;;3.47;2.20;;;12.10;99.90;;;;;;5054667;28;20533;-56
2024/02/18 00:29:36;;;;;;;5.40;2.30;;;12.10;99.90;;;;;;5054911;28;20461;-56
2024/02/18 00:32:03;;;;;;;4.53;2.30;;;12.10;99.90;;;;;;5054589;28;20895;-55
2024/02/18 00:34:30;;;;;;;6.03;2.27;;;12.10;99.90;;;;;;5054937;28;20441;-56
2024/02/18 00:36:57;;;;;;;7.53;2.00;;;12.10;99.90;;;;;;5054718;28;20449;-55
2024/02/18 00:39:24;;;;;;;4.57;2.23;;;12.10;99.90;;;;;;5054650;28;20477;-56
2024/02/18 00:41:51;;;;;;;8.00;2.60;;;12.10;99.90;;;;;;5054668;28;20881;-56
2024/02/18 00:44:23;;;;;;;4.70;2.53;;;12.10;99.90;;;;;;5054717;28;20452;-56
2024/02/18 00:46:50;;;;;;;7.63;2.30;;;12.10;99.90;;;;;;5054658;28;20799;-56
2024/02/18 00:49:17;;;;;;;6.90;2.93;;;12.10;99.90;;;;;;5054666;28;20890;-56
2024/02/18 00:51:43;;;;;;;7.37;2.13;;;12.10;99.90;;;;;;5054910;28;20446;-55
2024/02/18 00:54:10;;;;;;;7.80;2.90;;;12.10;99.90;;;;;;5054344;28;20458;-56
2024/02/18 00:56:37;;;;;;;6.10;2.13;;;12.10;99.90;;;;;;5054456;28;20448;-56
2024/02/18 00:59:04;;;;;;;3.83;2.00;;;12.10;99.90;;;;;;5054397;28;21017;-55
2024/02/18 01:01:32;;;;;;;12.00;2.33;;;12.10;99.90;;;;;;5054927;28;20592;-56
2024/02/18 01:03:59;;;;;;;3.73;1.77;;;12.10;99.90;;;;;;5053559;28;20868;-55
2024/02/18 01:06:26;;;;;;;6.93;2.33;;;12.10;99.90;;;;;;5054316;28;20477;-55
2024/02/18 01:08:53;;;;;;;5.73;2.17;;;12.10;99.90;;;;;;5053883;28;20911;-56
2024/02/18 01:11:20;;;;;;;4.10;2.37;;;12.10;99.90;;;;;;5054111;28;20438;-55
2024/02/18 01:13:47;;;;;;;7.10;2.37;;;12.10;99.90;;;;;;5054336;28;20548;-56
2024/02/18 01:16:14;;;;;;;5.63;2.40;;;12.10;99.90;;;;;;5054294;28;20446;-56
2024/02/18 01:18:43;;;;;;;6.90;2.20;;;12.10;99.90;;;;;;5054114;28;20465;-56
2024/02/18 01:21:10;;;;;;;4.40;2.10;;;12.10;99.90;;;;;;5053555;28;21003;-55
2024/02/18 01:23:37;;;;;;;8.13;2.10;;;12.10;99.90;;;;;;5053925;28;20493;-56
2024/02/18 01:26:05;;;;;;;8.13;2.77;;;12.10;99.90;;;;;;5053875;28;20445;-56
2024/02/18 01:28:31;;;;;;;8.20;3.80;;;12.10;99.90;;;;;;5053988;28;20445;-55
2024/02/18 01:30:58;;;;;;;6.07;2.33;;;12.10;99.90;;;;;;5053912;28;20441;-56
2024/02/18 01:33:25;;;;;;;8.57;3.30;;;12.10;99.90;;;;;;5053828;28;20446;-56
2024/02/18 01:35:53;;;;;;;3.93;2.30;;;12.10;99.90;;;;;;5053518;28;20452;-56
2024/02/18 01:38:20;;;;;;;5.47;2.83;;;12.00;99.90;;;;;;5053831;28;20441;-56
2024/02/18 01:40:47;;;;;;;4.97;2.53;;;12.10;99.90;;;;;;5053450;28;21048;-56
2024/02/18 01:43:17;;;;;;;6.00;2.63;;;12.00;99.90;;;;;;5053591;28;20456;-56
2024/02/18 01:45:45;;;;;;;4.57;2.70;;;12.00;99.90;;;;;;5053775;28;20560;-56
2024/02/18 01:48:13;;;;;;;7.00;3.10;;;11.90;99.90;;;;;;5053741;28;20507;-56
2024/02/18 01:50:40;;;;;;;5.70;3.10;;;11.90;99.90;;;;;;5053700;28;20489;-56
2024/02/18 01:53:09;;;;;;;6.50;2.87;;;11.90;99.90;;;;;;5052972;28;20445;-55
2024/02/18 01:55:36;;;;;;;6.43;2.73;;;11.90;99.90;;;;;;5053544;28;20436;-56
2024/02/18 01:58:04;;;;;;;5.40;2.87;;;11.90;99.90;;;;;;5053754;28;20453;-55
2024/02/18 02:00:31;;;;;;;7.80;2.80;;;11.80;99.90;;;;;;5053267;28;21073;-56
2024/02/18 02:02:58;;;;;;;3.83;2.07;;;11.80;99.90;;;;;;5053406;28;20441;-56
2024/02/18 02:05:26;;;;;;;5.93;2.47;;;11.80;99.90;;;;;;5053497;28;20503;-56
2024/02/18 02:07:53;;;;;;;5.03;2.50;;;11.80;99.90;;;;;;5053396;28;20472;-56
2024/02/18 02:10:21;;;;;;;6.60;2.77;;;11.80;99.90;;;;;;5053187;28;20987;-56
2024/02/18 02:12:48;;;;;;;6.23;3.20;;;11.80;99.90;;;;;;5053584;28;20460;-56
2024/02/18 02:15:15;;;;;;;3.83;3.43;;;11.80;99.90;;;;;;5052702;28;20460;-56
2024/02/18 02:17:42;;;;;;;5.50;2.70;;;11.80;99.90;;;;;;5053206;28;20449;-56
2024/02/18 02:20:10;;;;;;;4.23;3.00;;;11.80;99.90;;;;;;5053895;28;20480;-56
2024/02/18 02:22:36;;;;;;;7.70;4.13;;;11.80;99.90;;;;;;5052802;28;20452;-55
2024/02/18 02:25:04;;;;;;;8.30;3.80;;;11.80;99.90;;;;;;5053492;28;20445;-56
2024/02/18 02:27:37;;;;;;;5.83;4.30;;;11.80;99.90;;;;;;5053238;28;20442;-56
2024/02/18 02:30:09;;;;;;;6.20;3.60;;;11.70;99.90;;;;;;5053276;28;20477;-56
2024/02/18 02:32:35;;;;;;;4.23;3.40;;;11.70;99.90;;;;;;5052952;28;20927;-56
2024/02/18 02:35:03;;;;;;;8.00;3.70;;;11.70;99.90;;;;;;5053192;28;20442;-56
2024/02/18 02:37:30;;;;;;;5.90;3.57;;;11.70;99.90;;;;;;5052989;28;20932;-55
2024/02/18 02:39:57;;;;;;;4.73;3.20;;;11.60;99.90;;;;;;5052832;28;20975;-56
2024/02/18 02:42:23;;;;;;;4.10;3.70;;;11.60;99.90;;;;;;5052682;28;21003;-56
2024/02/18 02:44:50;;;;;;;5.77;3.30;;;11.60;99.90;;;;;;5053278;28;20538;-56
2024/02/18 02:47:18;;;;;;;6.63;4.27;;;11.50;99.90;;;;;;5052848;28;20951;-56
2024/02/18 02:49:45;;;;;;;4.63;3.83;;;11.50;99.90;;;;;;5053159;28;20466;-56
2024/02/18 02:52:12;;;;;;;5.87;3.33;;;11.50;99.90;;;;;;5053084;28;20433;-56
2024/02/18 02:54:39;;;;;;;6.87;3.50;;;11.50;99.90;;;;;;5052806;28;20461;-56
2024/02/18 02:57:06;;;;;;;7.17;4.23;;;11.50;99.90;;;;;;5052999;28;20497;-56
2024/02/18 02:59:32;;;;;;;8.03;4.00;;;11.50;99.90;;;;;;5052988;28;20527;-56
2024/02/18 03:01:59;;;;;;;8.80;3.23;;;11.50;99.90;;;;;;5052916;28;20488;-56
2024/02/18 03:04:28;;;;;;;7.07;3.40;;;11.50;99.90;;;;;;5053066;28;20452;-56
2024/02/18 03:06:54;;;;;;;7.90;3.73;;;11.40;99.90;;;;;;5053354;28;20467;-56
2024/02/18 03:09:21;;;;;;;4.47;3.40;;;11.40;99.90;;;;;;5052952;28;20468;-56
2024/02/18 03:11:48;;;;;;;5.20;2.90;;;11.40;99.90;;;;;;5053031;28;20442;-56
2024/02/18 03:14:15;;;;;;;5.50;3.50;;;11.40;99.90;;;;;;5052578;28;20451;-56
2024/02/18 03:16:43;;;;;;;5.43;3.10;;;11.40;99.90;;;;;;5053174;28;20441;-56
2024/02/18 03:19:10;;;;;;;7.50;3.47;;;11.40;99.90;;;;;;5052926;28;20472;-56
2024/02/18 03:21:39;;;;;;;7.47;2.80;;;11.30;99.90;;;;;;5053845;28;20488;-56
2024/02/18 03:24:06;;;;;;;7.00;3.40;;;11.30;99.90;;;;;;5053100;28;20536;-56
2024/02/18 03:26:34;;;;;;;3.40;2.17;;;11.30;99.90;;;;;;5053981;28;20441;-55
2024/02/18 03:29:02;;;;;;;4.50;2.90;;;11.30;99.90;;;;;;5056413;28;20519;-56
2024/02/18 03:31:29;;;;;;;4.50;2.30;;;11.30;99.90;;;;;;5056469;28;20452;-56
2024/02/18 03:33:56;;;;;;;4.43;2.80;;;11.20;99.90;;;;;;5056551;28;20528;-56
2024/02/18 03:36:24;;;;;;;3.43;2.80;;;11.20;99.90;;;;;;5056494;28;20446;-56
2024/02/18 03:38:52;;;;;;;9.20;2.80;;;11.20;99.90;;;;;;5056489;28;20465;-56
2024/02/18 03:41:19;;;;;;;2.63;2.10;;;11.30;99.90;;;;;;5056211;28;21018;-56
2024/02/18 03:43:45;;;;;;;4.20;2.60;;;11.20;99.90;;;;;;5056150;28;20949;-56
2024/02/18 03:46:12;;;;;;;8.10;2.90;;;11.20;99.90;;;;;;5055959;28;20966;-55
2024/02/18 03:48:39;;;;;;;4.60;2.67;;;11.30;99.90;;;;;;5056700;28;21006;-55
2024/02/18 03:51:06;;;;;;;4.20;2.70;;;11.20;99.90;;;;;;5057195;28;20444;-56
2024/02/18 03:53:33;;;;;;;4.27;2.87;;;11.20;99.90;;;;;;5058258;28;20540;-56
2024/02/18 03:56:01;;;;;;;5.27;2.60;;;11.30;99.90;;;;;;5057588;28;20445;-56
2024/02/18 03:58:28;;;;;;;8.27;2.90;;;11.20;99.90;;;;;;5056970;28;20454;-56
2024/02/18 04:00:54;;;;;;;5.03;2.80;;;11.30;99.90;;;;;;5056624;28;20491;-56
2024/02/18 04:03:21;;;;;;;6.30;2.93;;;11.30;99.90;;;;;;5057199;28;20453;-56
2024/02/18 04:05:48;;;;;;;4.60;3.10;;;11.20;99.90;;;;;;5057752;28;20449;-56
2024/02/18 04:08:15;;;;;;;4.40;2.60;;;11.20;99.90;;;;;;5059237;28;20454;-56
2024/02/18 04:10:41;;;;;;;4.87;2.43;;;11.20;99.90;;;;;;5059321;28;20491;-56
2024/02/18 04:13:10;;;;;;;5.13;2.63;;;11.30;99.90;;;;;;5058555;28;20446;-56
2024/02/18 04:15:37;;;;;;;4.23;3.10;;;11.20;99.90;;;;;;5057734;28;20450;-56
2024/02/18 04:18:04;;;;;;;5.70;3.00;;;11.20;99.90;;;;;;5056685;28;20452;-57
2024/02/18 04:20:31;;;;;;;7.27;3.07;;;11.20;99.90;;;;;;5056191;28;20998;-56
2024/02/18 04:22:57;;;;;;;7.07;3.13;;;11.30;99.90;;;;;;5055876;28;20504;-56
2024/02/18 04:25:24;;;;;;;5.23;3.13;;;11.30;99.90;;;;;;5055612;28;20451;-56
2024/02/18 04:27:51;;;;;;;4.37;3.00;;;11.30;99.90;;;;;;5055211;28;20508;-56
2024/02/18 04:30:19;;;;;;;6.50;3.23;;;11.30;99.90;;;;;;5055001;28;20473;-56
2024/02/18 04:32:46;;;;;;;6.10;3.10;;;11.30;99.90;;;;;;5054700;28;20449;-56
2024/02/18 04:35:13;;;;;;;7.30;3.57;;;11.30;99.90;;;;;;5054889;28;20445;-56
2024/02/18 04:37:40;;;;;;;5.97;3.80;;;11.30;99.90;;;;;;5054543;28;20811;-56
2024/02/18 04:40:08;;;;;;;5.70;3.47;;;11.30;99.90;;;;;;5054599;28;20469;-56
2024/02/18 04:42:35;;;;;;;5.30;2.90;;;11.30;99.90;;;;;;5054942;28;20535;-56
2024/02/18 04:45:02;;;;;;;6.53;2.73;;;11.30;99.90;;;;;;5054567;28;20450;-56
2024/02/18 04:47:31;;;;;;;6.70;3.50;;;11.30;99.90;;;;;;5054353;28;20921;-56
2024/02/18 04:49:58;;;;;;;4.83;3.47;;;11.30;99.90;;;;;;5054482;28;20465;-56
2024/02/18 04:52:25;;;;;;;5.63;2.77;;;11.30;99.90;;;;;;5054209;28;20450;-56
2024/02/18 04:54:51;;;;;;;7.90;3.73;;;11.30;99.90;;;;;;5054297;28;20544;-55
2024/02/18 04:57:18;;;;;;;3.33;2.57;;;11.30;99.90;;;;;;5054162;28;20537;-56
2024/02/18 04:59:45;;;;;;;5.83;3.80;;;11.30;99.90;;;;;;5054115;28;20843;-56
2024/02/18 05:02:12;;;;;;;8.07;3.00;;;11.30;99.90;;;;;;5054124;28;20831;-56
2024/02/18 05:04:40;;;;;;;3.77;2.90;;;11.30;99.90;;;;;;5054300;28;20449;-56
2024/02/18 05:07:07;;;;;;;6.30;3.00;;;11.30;99.90;;;;;;5054296;28;20446;-56
2024/02/18 05:09:34;;;;;;;8.10;3.60;;;11.30;99.90;;;;;;5054129;28;20488;-56
2024/02/18 05:12:02;;;;;;;5.07;2.73;;;11.30;99.90;;;;;;5054320;28;20445;-56
2024/02/18 05:14:29;;;;;;;7.00;3.23;;;11.30;99.90;;;;;;5054073;28;20453;-56
2024/02/18 05:16:57;;;;;;;6.40;2.93;;;11.30;99.90;;;;;;5054129;28;20438;-56
2024/02/18 05:19:24;;;;;;;5.33;3.00;;;11.30;99.90;;;;;;5054046;28;20477;-56
2024/02/18 05:21:53;;;;;;;5.77;2.80;;;11.30;99.90;;;;;;5053535;28;20483;-56
2024/02/18 05:24:20;;;;;;;6.50;2.90;;;11.30;99.90;;;;;;5053957;28;20503;-56
2024/02/18 05:26:47;;;;;;;4.83;2.70;;;11.40;99.90;;;;;;5053928;28;20450;-56
2024/02/18 05:29:14;;;;;;;8.67;2.83;;;11.40;99.90;;;;;;5053422;28;20810;-56
2024/02/18 05:31:41;;;;;;;7.57;2.90;;;11.40;99.90;;;;;;5053730;28;20438;-56
2024/02/18 05:34:08;;;;;;;3.90;2.70;;;11.40;99.90;;;;;;5053613;28;20477;-55
2024/02/18 05:36:34;;;;;;;6.37;2.80;;;11.30;99.90;;;;;;5053936;28;20446;-55
2024/02/18 05:39:03;;;;;;;5.57;3.80;;;11.40;99.90;;;;;;5053748;28;20536;-56
2024/02/18 05:41:31;;;;;;;5.73;4.33;;;11.40;99.90;;;;;;5053605;28;20497;-56
2024/02/18 05:43:58;;;;;;;6.77;2.83;;;11.40;99.90;;;;;;5053682;28;20441;-56
2024/02/18 05:46:25;;;;;;;5.97;2.50;;;11.30;99.90;;;;;;5053756;28;20452;-56
2024/02/18 05:48:52;;;;;;;7.80;3.10;;;11.30;99.90;;;;;;5052768;28;20505;-56
2024/02/18 05:51:18;;;;;;;3.93;2.20;;;11.30;99.90;;;;;;5053114;28;20940;-56
2024/02/18 05:53:45;;;;;;;3.70;2.20;;;11.30;99.90;;;;;;5053133;28;20822;-56
2024/02/18 05:56:14;;;;;;;6.57;2.40;;;11.20;99.90;;;;;;5053408;28;20445;-56
2024/02/18 05:58:40;;;;;;;4.80;2.40;;;11.30;99.90;;;;;;5052968;28;20472;-55
2024/02/18 06:01:07;;;;;;;3.60;1.90;;;11.30;99.90;;;;;;5053032;28;20460;-56
2024/02/18 06:03:34;;;;;;;5.63;2.27;;;11.30;99.90;;;;;;5053059;28;20452;-56
2024/02/18 06:06:01;;;;;;;5.17;1.97;;;11.30;99.90;;;;;;5052944;28;20955;-56
2024/02/18 06:08:27;;;;;;;6.07;2.23;;;11.30;99.90;;;;;;5052872;28;20935;-56
2024/02/18 06:10:54;;;;;;;6.50;2.30;;;11.30;99.90;;;;;;5053209;28;20441;-56
2024/02/18 06:13:22;;;;;;;4.80;2.40;;;11.30;99.90;;;;;;5053212;28;20442;-56
2024/02/18 06:15:50;;;;;;;6.43;2.00;;;11.30;99.90;;;;;;5053211;28;20536;-56
2024/02/18 06:18:20;;;;;;;9.17;2.50;;;11.30;99.90;;;;;;5053487;28;20511;-56
2024/02/18 06:20:46;;;;;;;8.33;1.87;;;11.30;99.90;;;;;;5053198;28;20526;-56
2024/02/18 06:23:13;;;;;;;2.30;1.90;;;11.30;99.90;;;;;;5053036;28;20838;-56
2024/02/18 06:25:40;;;;;;;7.13;2.47;;;11.30;99.90;;;;;;5053178;28;20441;-56
2024/02/18 06:28:08;;;;;;;6.50;2.40;;;11.30;99.90;;;;;;5053161;28;20535;-56
2024/02/18 06:30:36;;;;;;;9.50;3.43;;;11.30;99.90;;;;;;5053243;28;20462;-56
2024/02/18 06:33:03;;;;;;;6.53;3.07;;;11.20;99.90;;;;;;5052807;28;20932;-56
2024/02/18 06:35:30;;;;;;;6.00;3.60;;;11.20;99.90;;;;;;5053185;28;20437;-56
2024/02/18 06:37:57;;;;;;;5.03;3.80;;;11.20;99.90;;;;;;5052679;28;20449;-56
2024/02/18 06:40:24;;;;;;;6.17;3.80;;;11.10;99.90;;;;;;5052697;28;20993;-56
2024/02/18 06:42:51;;;;;;;3.70;3.40;;;11.10;99.90;;;;;;5052854;28;20536;-55
2024/02/18 06:45:18;;;;;;;5.80;2.67;;;11.10;99.90;;;;;;5052903;28;20456;-56
2024/02/18 06:47:47;;;;;;;9.60;3.87;;;11.10;99.90;;;;;;5052949;28;20446;-56
2024/02/18 06:50:14;;;;;;;6.43;3.50;;;11.00;99.90;;;;;;5052767;28;20470;-56
2024/02/18 06:52:41;;;;;;;9.70;3.30;;;11.00;99.90;;;;;;5052965;28;20442;-55
2024/02/18 06:55:09;;;;;;;5.83;3.50;;;11.00;99.90;;;;;;5052503;28;20543;-56
2024/02/18 06:57:37;;;;;;;8.03;3.60;;;11.00;99.90;;;;;;5052858;28;20887;-56
2024/02/18 07:00:04;;;;;;;7.00;3.23;;;11.00;99.90;;;;;;5053027;28;21017;-56
2024/02/18 07:02:31;;;;;;;5.87;3.40;;;11.00;99.90;;;;;;5056226;28;20487;-55
2024/02/18 07:04:59;;;;;;;4.87;3.10;;;11.00;99.90;;;;;;5056611;28;20445;-56
2024/02/18 07:07:26;;;;;;;5.70;3.40;;;10.90;99.90;;;;;;5056572;28;20453;-56
2024/02/18 07:09:53;;;;;;;6.10;3.40;;;10.90;99.90;;;;;;5056901;28;20461;-56
2024/02/18 07:12:20;;;;;;;4.93;3.17;;;10.90;99.90;;;;;;5056331;28;20448;-56
2024/02/18 07:14:47;;;;;;;11.03;3.77;;;10.80;99.90;;;;;;5056542;28;20449;-56
2024/02/18 07:17:19;;;;;;;5.20;3.33;;;10.80;99.90;;;;;;5056510;28;20447;-56
2024/02/18 07:19:46;;;;;;;6.13;3.30;;;10.80;99.90;;;;;;5056465;28;20461;-56
2024/02/18 07:22:14;;;;;;;4.90;2.70;;;10.80;99.90;;;;;;5056118;28;20478;-56
2024/02/18 07:24:41;;;;;;;7.03;2.93;;;10.80;99.90;;;;;;5056796;28;20793;-56
2024/02/18 07:27:08;;;;;;;4.27;2.87;;;10.80;99.90;;;;;;5056295;28;20450;-56
2024/02/18 07:29:35;;;;;;;4.27;3.30;;;10.80;99.90;;;;;;5056397;28;20461;-56
2024/02/18 07:32:01;;;;;;;7.80;3.87;;;10.80;99.90;;;;;;5056510;28;20820;-56
2024/02/18 07:34:28;;;;;;;7.47;3.70;;;10.90;99.90;;;;;;5056142;28;20449;-56
2024/02/18 07:36:55;;;;;;;7.30;3.70;;;10.90;99.90;;;;;;5056098;28;20446;-56
2024/02/18 07:39:24;;;;;;;5.40;3.60;;;10.90;99.90;;;;;;5056069;28;20492;-56
2024/02/18 07:41:51;;;;;;;8.17;3.40;;;10.90;99.90;;;;;;5055979;28;20454;-56
2024/02/18 07:44:17;;;;;;;6.67;3.33;;;10.80;99.90;;;;;;5055831;28;20799;-56
2024/02/18 07:46:45;;;;;;;4.90;3.70;;;10.80;99.90;;;;;;5055841;28;20441;-57
2024/02/18 07:49:15;;;;;;;6.97;3.67;;;10.80;99.90;;;;;;5055569;28;20972;-57
2024/02/18 07:51:42;;;;;;;5.03;3.30;;;10.70;99.90;;;;;;5056103;28;20452;-57
2024/02/18 07:54:09;;;;;;;7.80;3.50;;;10.70;99.90;;;;;;5055379;28;20471;-57
2024/02/18 07:56:44;;;;;;;7.27;3.53;;;10.70;99.90;;;;;;5055628;28;20456;-57
2024/02/18 07:59:11;;;;;;;5.57;2.87;;;10.70;99.90;;;;;;5055794;28;20473;-57
2024/02/18 08:01:38;;;;;;;4.97;2.73;;;10.70;99.90;;;;;;5055321;28;20853;-56
2024/02/18 08:04:05;;;;;;;5.50;3.00;;;10.70;99.90;;;;;;5055461;28;20488;-57
2024/02/18 08:06:32;;;;;;;8.90;2.90;;;10.80;99.90;;;;;;5055499;28;20454;-57
2024/02/18 08:08:59;;;;;;;5.30;2.97;;;10.70;99.90;;;;;;5055056;28;20895;-57
2024/02/18 08:11:26;;;;;;;4.87;3.37;;;10.80;99.90;;;;;;5055159;28;20442;-57
2024/02/18 08:13:54;;;;;;;4.50;2.43;;;10.80;99.90;;;;;;5054557;28;20946;-57
2024/02/18 08:16:21;;;;;;;6.13;2.60;;;10.90;99.90;;;;;;5055361;28;20451;-57
2024/02/18 08:18:47;;;;;;;4.40;2.50;;;10.90;99.90;;;;;;5054882;28;20466;-57
2024/02/18 08:21:14;;;;;;;3.83;2.40;;;11.00;99.90;;;;;;5055205;28;20448;-57
2024/02/18 08:23:41;;;;;;;8.47;2.73;;;11.00;99.90;;;;;;5054998;28;20481;-57
2024/02/18 08:26:08;;;;;;;6.17;2.27;;;11.10;99.90;;;;;;5054814;28;20448;-57
2024/02/18 08:28:35;;;;;;;6.87;3.23;;;11.10;99.90;;;;;;5055031;28;20447;-57
2024/02/18 08:31:03;;;;;;;6.23;2.67;;;11.10;99.90;;;;;;5055022;28;20452;-57
2024/02/18 08:33:31;;;;;;;6.00;2.90;;;11.10;99.90;;;;;;5054964;28;20437;-57
2024/02/18 08:35:57;;;;;;;6.87;3.30;;;11.10;99.90;;;;;;5055323;28;20441;-57
2024/02/18 08:38:24;;;;;;;6.47;2.80;;;11.10;99.90;;;;;;5054831;28;20442;-57
2024/02/18 08:40:51;;;;;;;6.10;2.73;;;11.20;99.90;;;;;;5055379;28;20457;-57
2024/02/18 08:43:18;;;;;;;5.20;2.63;;;11.10;99.90;;;;;;5054727;28;20487;-57
2024/02/18 08:45:44;;;;;;;3.67;2.60;;;11.20;99.90;;;;;;5055231;28;20452;-57
2024/02/18 08:48:13;;;;;;;2.80;2.17;;;11.30;99.90;;;;;;5054847;28;20871;-57
2024/02/18 08:50:40;;;;;;;4.07;2.17;;;11.30;99.90;;;;;;5054476;28;20825;-57
2024/02/18 08:53:08;;;;;;;4.47;2.17;;;11.40;99.90;;;;;;5054518;28;20450;-57
2024/02/18 08:55:35;;;;;;;4.17;2.63;;;11.40;99.90;;;;;;5054821;28;20438;-57
2024/02/18 08:58:02;;;;;;;6.10;2.20;;;11.40;99.90;;;;;;5054498;28;20481;-57
2024/02/18 09:00:28;;;;;;;6.67;2.43;;;11.40;99.90;;;;;;5054373;28;20469;-57
2024/02/18 09:02:55;;;;;;;7.20;2.40;;;11.40;99.90;;;;;;5054305;28;20485;-58
2024/02/18 09:05:24;;;;;;;4.10;2.90;;;11.50;99.90;;;;;;5054176;28;20545;-58
2024/02/18 09:07:50;;;;;;;5.80;2.40;;;11.40;99.90;;;;;;5054436;28;20441;-58
2024/02/18 09:10:17;;;;;;;4.57;2.77;;;11.40;99.90;;;;;;5053839;28;20473;-57
2024/02/18 09:12:44;;;;;;;6.47;2.90;;;11.40;99.90;;;;;;5053889;28;20815;-57
2024/02/18 09:15:11;;;;;;;3.70;2.17;;;11.40;99.90;;;;;;5054303;28;20450;-57
2024/02/18 09:17:38;;;;;;;6.60;3.10;;;11.50;99.90;;;;;;5054242;28;20789;-57
2024/02/18 09:20:06;;;;;;;5.50;2.30;;;11.50;99.90;;;;;;5054071;28;20465;-57
2024/02/18 09:22:35;;;;;;;5.70;2.07;;;11.50;99.90;;;;;;5053999;28;20485;-57
2024/02/18 09:25:01;;;;;;;6.03;2.83;;;11.50;99.90;;;;;;5052967;28;20939;-57
2024/02/18 09:27:28;;;;;;;4.60;2.13;;;11.50;99.90;;;;;;5053673;28;20940;-57
2024/02/18 09:29:55;;;;;;;6.10;2.80;;;11.50;99.90;;;;;;5054015;28;20474;-57
2024/02/18 09:32:22;;;;;;;4.07;2.17;;;11.50;99.90;;;;;;5053581;28;21024;-57
2024/02/18 09:34:49;;;;;;;4.40;2.33;;;11.50;99.90;;;;;;5053741;28;20457;-57
2024/02/18 09:37:16;;;;;;;2.50;2.30;;;11.50;99.90;;;;;;5053736;28;20456;-57
2024/02/18 09:39:44;;;;;;;5.00;2.63;;;11.50;99.90;;;;;;5053605;28;20461;-57
2024/02/18 09:42:11;;;;;;;6.93;2.70;;;11.50;99.90;;;;;;5053563;28;20884;-57
2024/02/18 09:44:42;;;;;;;5.13;2.23;;;11.50;99.90;;;;;;5053562;28;20491;-57
2024/02/18 09:47:12;;;;;;;4.10;2.37;;;11.50;99.90;;;;;;5053928;28;20456;-57
2024/02/18 09:49:39;;;;;;;3.77;2.13;;;11.50;99.90;;;;;;5053558;28;20465;-57
2024/02/18 09:52:07;;;;;;;8.20;2.50;;;11.50;99.90;;;;;;5053222;28;20958;-57
2024/02/18 09:54:35;;;;;;;12.83;2.77;;;11.50;99.90;;;;;;5052994;28;20457;-57
2024/02/18 09:57:06;;;;;;;10.30;2.57;;;11.50;99.90;;;;;;5053491;28;20450;-58
2024/02/18 09:59:33;;;;;;;3.27;2.10;;;11.50;99.90;;;;;;5053525;28;20461;-57
2024/02/18 10:02:02;;;;;;;5.47;2.40;;;11.50;99.90;;;;;;5053399;28;20449;-58
2024/02/18 10:04:29;;;;;;;2.90;2.00;;;11.50;99.90;;;;;;5053492;28;20520;-57
2024/02/18 10:06:56;;;;;;;5.70;2.57;;;11.50;99.90;;;;;;5053245;28;20452;-57
2024/02/18 10:09:23;;;;;;;7.17;2.93;;;11.50;99.90;;;;;;5053184;28;20464;-57
2024/02/18 10:11:50;;;;;;;7.00;2.93;;;11.60;99.90;;;;;;5053194;28;20853;-57
2024/02/18 10:14:23;;;;;;;3.50;2.03;;;11.60;99.90;;;;;;5053183;28;20449;-57
2024/02/18 10:16:50;;;;;;;6.07;2.40;;;11.60;99.90;;;;;;5053347;28;20425;-57
2024/02/18 10:19:17;;;;;;;7.70;2.43;;;11.70;99.90;;;;;;5053359;28;20468;-57
2024/02/18 10:21:44;;;;;;;5.20;2.07;;;11.70;99.90;;;;;;5052883;28;20891;-58
2024/02/18 10:24:11;;;;;;;5.10;2.10;;;11.70;99.90;;;;;;5052840;28;20489;-57
2024/02/18 10:26:38;;;;;;;2.47;2.00;;;11.70;99.90;;;;;;5053201;28;20445;-57
2024/02/18 10:29:06;;;;;;;4.97;1.83;;;11.80;99.90;;;;;;5053126;28;20552;-57
2024/02/18 10:31:34;;;;;;;4.90;2.27;;;11.70;99.90;;;;;;5064580;28;20814;-56
2024/02/18 10:34:00;;;;;;;10.50;2.27;;;11.80;99.90;;;;;;5072890;28;20451;-57
2024/02/18 10:36:30;;;;;;;2.80;2.13;;;11.80;99.90;;;;;;5076351;28;20854;-57
2024/02/18 10:39:03;;;;;;;3.73;2.27;;;11.70;99.90;;;;;;5077291;28;20559;-58
2024/02/18 10:41:35;;;;;;;3.70;2.67;;;11.70;99.90;;;;;;5078227;28;20429;-57
2024/02/18 10:44:04;;;;;;;4.87;2.60;;;11.70;99.90;;;;;;5077870;28;20475;-57
2024/02/18 10:46:33;;;;;;;4.97;2.87;;;11.70;99.90;;;;;;5077847;28;20467;-57
2024/02/18 10:49:15;;;;;;;4.03;2.43;;;11.60;99.90;;;;;;5077607;28;20471;-57
2024/02/18 10:51:52;;;;;;;11.60;2.60;;;11.60;99.90;;;;;;5077316;28;20429;-57
2024/02/18 10:54:28;;;;;;;4.83;2.83;;;11.60;99.90;;;;;;5076849;28;20493;-57
2024/02/18 10:56:57;;;;;;;5.20;2.57;;;11.60;99.90;;;;;;5077114;28;20439;-57
2024/02/18 10:59:29;;;;;;;6.63;2.23;;;11.50;99.90;;;;;;5076939;28;20464;-57
2024/02/18 11:02:04;;;;;;;3.87;2.60;;;11.50;99.90;;;;;;5077071;28;20433;-56
2024/02/18 11:04:33;;;;;;;4.73;2.60;;;11.50;99.90;;;;;;5076878;28;20463;-57
2024/02/18 11:07:01;;;;;;;3.87;2.80;;;11.50;99.90;;;;;;5076777;28;20886;-57
2024/02/18 11:09:30;;;;;;;4.67;2.57;;;11.50;99.90;;;;;;5076951;28;20494;-57
2024/02/18 11:11:57;;;;;;;2.50;2.20;;;11.50;99.90;;;;;;5076679;28;20472;-57
2024/02/18 11:14:25;;;;;;;5.00;3.03;;;11.50;99.90;;;;;;5076580;28;20531;-57
2024/02/18 11:16:54;;;;;;;6.40;2.67;;;11.50;99.90;;;;;;5076537;28;20444;-57
2024/02/18 11:19:21;;;;;;;2.60;2.30;;;11.50;99.90;;;;;;5076261;28;20469;-57
2024/02/18 11:21:52;;;;;;;5.00;3.10;;;11.60;99.90;;;;;;5076634;28;20441;-57
2024/02/18 11:24:19;;;;;;;7.50;3.00;;;11.60;99.90;;;;;;5076777;28;20987;-57
2024/02/18 11:26:45;;;;;;;6.20;3.07;;;11.70;99.90;;;;;;5076407;28;20938;-57
2024/02/18 11:29:13;;;;;;;5.07;3.03;;;11.60;99.90;;;;;;5076586;28;20475;-57
2024/02/18 11:31:39;;;;;;;3.80;2.30;;;11.60;99.90;;;;;;5074356;28;20452;-56
2024/02/18 11:34:06;;;;;;;7.80;2.60;;;11.60;99.90;;;;;;5076454;28;20441;-57
2024/02/18 11:36:34;;;;;;;5.07;2.77;;;11.60;99.90;;;;;;5076580;28;20574;-57
2024/02/18 11:39:03;;;;;;;4.73;2.60;;;11.50;99.90;;;;;;5076711;28;20460;-58
2024/02/18 11:41:32;;;;;;;4.33;2.43;;;11.50;99.90;;;;;;5078209;28;20475;-57
2024/02/18 11:44:00;;;;;;;2.87;2.67;;;11.40;99.90;;;;;;5076654;28;20498;-57
2024/02/18 11:46:28;;;;;;;8.30;2.93;;;11.40;99.90;;;;;;5076044;28;20448;-57
2024/02/18 11:48:56;;;;;;;7.40;3.00;;;11.40;99.90;;;;;;5077449;28;20467;-57
2024/02/18 11:51:25;;;;;;;4.67;3.63;;;11.40;99.90;;;;;;5076491;28;20447;-58
2024/02/18 11:53:52;;;;;;;5.13;3.00;;;11.50;99.90;;;;;;5077139;28;20448;-58
2024/02/18 11:56:20;;;;;;;7.07;3.20;;;11.50;99.90;;;;;;5076101;28;20445;-58
2024/02/18 11:58:48;;;;;;;5.67;2.53;;;11.50;99.90;;;;;;5075872;28;20489;-58
2024/02/18 12:01:16;;;;;;;3.43;2.67;;;11.50;99.90;;;;;;5075736;28;20448;-58
2024/02/18 12:03:46;;;;;;;9.50;3.30;;;11.40;99.90;;;;;;5075485;28;20520;-58
2024/02/18 12:06:14;;;;;;;4.43;3.00;;;11.40;99.90;;;;;;5061969;28;20449;-57
2024/02/18 12:08:41;;;;;;;5.40;3.03;;;11.40;99.90;;;;;;5055342;28;20541;-57
2024/02/18 12:11:08;;;;;;;6.10;2.83;;;11.30;99.90;;;;;;5055144;28;20445;-58
2024/02/18 12:13:36;;;;;;;4.80;3.57;;;11.30;99.90;;;;;;5055441;28;20817;-58
2024/02/18 12:16:05;;;;;;;5.23;3.00;;;11.20;99.90;;;;;;5055375;28;20812;-58
2024/02/18 12:18:31;;;;;;;8.10;3.47;;;11.20;99.90;;;;;;5055128;28;20442;-57
2024/02/18 12:20:58;;;;;;;5.17;2.83;;;11.30;99.90;;;;;;5073676;28;20495;-57
2024/02/18 12:23:26;;;;;;;8.80;3.50;;;11.30;99.90;;;;;;5074676;28;20452;-58
2024/02/18 12:25:54;;;;;;;4.27;3.17;;;11.30;99.90;;;;;;5074891;28;20453;-58
2024/02/18 12:28:21;;;;;;;5.23;2.80;;;11.30;99.90;;;;;;5075131;28;20455;-58
2024/02/18 12:30:50;;;;;;;8.07;3.70;;;11.30;99.90;;;;;;5060199;28;20465;-57
2024/02/18 12:33:18;;;;;;;7.77;3.40;;;11.20;99.90;;;;;;5055049;28;20446;-58
2024/02/18 12:35:45;;;;;;;6.30;3.30;;;11.20;99.90;;;;;;5054955;28;20449;-58
2024/02/18 12:38:13;;;;;;;5.83;3.40;;;11.10;99.90;;;;;;5054462;28;20450;-57
2024/02/18 12:40:40;;;;;;;4.20;3.17;;;11.10;99.90;;;;;;5054439;28;20552;-57
2024/02/18 12:43:07;;;;;;;9.33;3.23;;;11.10;99.90;;;;;;5054820;28;20528;-58
2024/02/18 12:45:34;;;;;;;4.80;2.87;;;11.10;99.90;;;;;;5054584;28;20584;-57